Weather observations for the past three days for
Monterey Regional Airport
Metric (Imperial)
Date Time (pdt) Wind (kph) Vis. (km) Weather Sky Cond. Temperature (ºC) Relative Humidity Wind Chill (°C) Heat Index (°C) Pressure Precipitation (cm)
Air Dwpt 6 hour altimeter (cm) sea level (mb) 1 hr 3 hr 6 hr
Max. Min.
09 07:54 W 7 16.09 Overcast OVC004 11.1 9.4 89% 76.28 1018.1
09 06:54 W 9 14.48 Overcast OVC004 11.1 10 93% 76.25 1017.7
09 05:54 SW 6 6.44 Fog/Mist OVC003 11.7 10.6 93% 76.23 1017.3
09 04:54 Calm 11.27 Overcast OVC005 11.7 10 12.2 11.1 89% 76.23 1017.3
09 03:54 S 7 16.09 Overcast OVC006 11.1 9.4 89% 76.23 1017.4
09 02:54 S 9 16.09 Overcast OVC008 11.7 9.4 86% 76.25 1017.6
09 01:54 SW 9 16.09 Overcast OVC009 11.7 9.4 86% 76.3 1018.3
09 00:54 SW 15 16.09 Overcast OVC008 12.2 9.4 83% 76.33 1018.8
08 23:54 SW 13 16.09 Overcast OVC008 11.7 9.4 86% 76.35 1019.0
08 22:54 SW 9 16.09 Overcast OVC009 11.7 9.4 14.4 11.7 86% 76.38 1019.4
08 21:54 SW 11 16.09 Overcast OVC009 12.2 9.4 83% 76.38 1019.4
08 20:54 SW 13 16.09 Overcast OVC008 12.2 9.4 83% 76.33 1018.8
08 19:54 SW 22 G 33 16.09 Overcast OVC008 12.2 10 87% 76.3 1018.5
08 18:54 SW 15 16.09 Overcast OVC009 12.8 10 83% 76.3 1018.3
08 17:54 W 20 16.09 Overcast OVC010 13.3 10 81% 76.33 1018.6
08 16:54 W 17 16.09 Mostly Cloudy BKN013 14.4 10 15.6 12.8 75% 76.35 1018.9
08 15:54 W 15 16.09 Overcast OVC012 15 10.6 75% 76.38 1019.5
08 14:54 NW 17 16.09 Overcast OVC012 14.4 10 75% 76.4 1019.9
08 13:54 W 20 16.09 Overcast OVC011 14.4 10 75% 76.48 1020.6
08 12:54 W 19 16.09 Overcast OVC011 13.9 10 78% 76.48 1020.8
08 11:54 NW 9 16.09 Overcast OVC009 13.3 10 81% 76.48 1020.9
08 10:54 W 13 16.09 Overcast OVC006 12.8 10.6 12.8 11.1 87% 76.48 1020.9
08 09:54 N 6 9.66 Fog/Mist OVC004 12.2 10.6 90% 76.48 1020.8
08 08:54 W 7 9.66 Fog/Mist OVC005 11.7 10.6 93% 76.48 1020.9
08 07:54 NE 6 11.27 Overcast OVC006 11.7 10.6 93% 76.45 1020.6
08 06:54 Calm 14.48 Overcast OVC004 11.7 10 89% 76.43 1020.2
08 05:54 S 6 11.27 Overcast OVC004 11.1 10 93% 76.43 1020.1
08 04:54 S 7 14.48 Overcast OVC006 11.1 9.4 12.2 11.1 89% 76.4 1019.9
08 03:54 SW 6 16.09 Overcast OVC008 11.7 9.4 86% 76.4 1019.7
08 02:54 SW 11 16.09 Overcast OVC008 11.7 9.4 86% 76.4 1019.7
08 01:54 SW 15 16.09 Overcast OVC008 11.7 9.4 86% 76.4 1019.9
08 00:54 W 17 G 31 16.09 Overcast OVC006 11.7 9.4 86% 76.43 1020.2
07 23:54 SW 13 16.09 Overcast OVC005 12.2 10.6 90% 76.43 1020.0
07 22:54 SW 13 16.09 Overcast OVC005 12.2 10.6 14.4 12.2 90% 76.4 1019.7
07 21:54 SW 15 16.09 Overcast OVC004 12.2 10.6 90% 76.4 1019.9
07 20:54 SW 11 16.09 Overcast OVC007 12.2 10.6 90% 76.38 1019.5
07 19:54 SW 15 16.09 Overcast OVC008 12.8 10 83% 76.35 1019.1
07 18:54 W 11 16.09 Overcast OVC009 13.3 10.6 84% 76.38 1019.3
07 17:54 W 13 16.09 Overcast OVC009 13.9 10.6 81% 76.38 1019.5
07 16:54 W 20 16.09 Mostly Cloudy BKN009 14.4 10.6 16.7 14.4 78% 76.38 1019.4
07 15:54 W 19 G 33 16.09 Partly Cloudy SCT011 15.6 11.1 75% 76.35 1019.2
07 14:54 W 19 16.09 Fair CLR 16.1 10.6 70% 76.38 1019.5
07 13:54 NW 20 16.09 Fair CLR 15.6 10.6 72% 76.4 1019.8
07 12:54 NW 17 16.09 A Few Clouds FEW010 15 10.6 75% 76.43 1020.1
07 11:54 W 15 11.27 Mostly Cloudy BKN007 15 11.7 81% 76.45 1020.4
07 10:54 W 9 9.66 Mostly Cloudy with Haze BKN007 15 12.2 15 12.2 83% 76.45 1020.3
07 09:54 NW 7 8.05 Fog/Mist OVC003 13.3 11.7 90% 76.45 1020.4
07 08:54 NE 6 11.27 Overcast OVC003 12.8 11.7 93% 76.45 1020.3
07 07:54 W 6 8.05 Fog/Mist OVC002 12.8 11.7 93% 76.45 1020.5
07 06:54 Calm 4.83 Fog/Mist OVC002 12.8 11.7 93% 76.43 1020.3
07 05:54 NW 6 8.05 Fog/Mist OVC002 12.2 11.7 97% 76.43 1020.0
07 04:54 W 9 9.66 Fog/Mist OVC003 12.8 11.7 13.3 12.2 93% 76.43 1020.1
07 03:54 W 9 9.66 Fog/Mist OVC003 13.3 12.2 93% 76.43 1020.1
07 02:54 SE 6 16.09 Overcast OVC004 12.8 10.6 87% 76.43 1020.0
07 01:54 Calm 16.09 Fair CLR 12.2 10.6 90% 76.43 1020.2
07 00:54 W 6 16.09 Fair CLR 12.8 11.1 90% 76.45 1020.4
06 23:54 SW 11 16.09 Overcast OVC006 12.8 11.1 90% 76.48 1020.9
06 22:54 S 7 16.09 Overcast OVC006 12.8 11.1 16.7 12.8 90% 76.5 1021.3
06 21:54 SW 19 16.09 Overcast OVC006 13.3 11.1 87% 76.53 1021.4
06 20:54 SW 15 16.09 Overcast OVC007 13.3 11.1 87% 76.5 1021.0
06 19:54 W 15 16.09 Overcast OVC013 13.9 11.1 83% 76.48 1020.7
06 18:54 W 13 16.09 Mostly Cloudy BKN011 14.4 11.1 81% 76.45 1020.5
06 17:54 W 15 16.09 Partly Cloudy SCT013 15.6 11.1 75% 76.45 1020.4
06 16:54 W 15 16.09 Fair CLR 16.7 11.7 17.8 16.7 73% 76.43 1020.1
06 15:54 W 22 16.09 Fair CLR 17.2 11.7 70% 76.43 1020.1
06 14:54 NW 17 16.09 Fair CLR 17.8 11.7 68% 76.48 1020.8
06 13:54 W 17 G 33 16.09 Fair CLR 16.7 11.1 70% 76.5 1021.0
06 12:54 NW 19 16.09 Fair CLR 16.7 10.6 67% 76.5 1021.2
06 11:54 W 17 16.09 Fair CLR 16.7 10.6 67% 76.53 1021.6
06 10:54 W 15 16.09 Fair CLR 17.2 11.1 17.2 10.6 68% 76.53 1021.4
06 09:54 N 11 16.09 Fair CLR 17.2 10 63% 76.53 1021.3
06 08:54 N 9 16.09 Fair CLR 16.1 10 67% 76.53 1021.5
Date Time (pdt) Wind (kph) Vis. (km) Weather Sky Cond. Air Dwpt Max. Min. Relative Humidity Wind Chill (°C) Heat Index (°C) altimeter (cm) sea level (mb) 1 hr 3 hr 6 hr
6 hour
Temperature (ºC) Pressure Precipitation (cm)